الصفحة الرئيسية
METAR-TAF:

METAR-TAF

مطار :

السلفادور, السلفادور

دائرة عرض: 13-26N, خط طول: 089-03W, ارتفاع: 25 متر

مراقبة الطقس الحالي

تاريخ ووقت الإصدار 22 دقيقة قبل الساعة 09:50UTC
ريح 4 عقدة من الشرق/الشمال الشرقي
درجة الحرارة 20°درجة مئوية
الرطوبة 88%
ضغط 1012 hPa
الرؤية 10 كم أو أكثر
الغيوم لا تقل 1500 م ولا وجود لمزنة ركامية السحاب الأسود

METAR: MSLP 140950Z 06004KT CAVOK 20/18 Q1012 A2989 NOSIG

زمن: 04:12 (10:12 UTC)

توقعات

تاريخ ووقت الإصدار 6ساعات و 47 دقيقة قبل الساعة 03:25UTC
التوقعات صالحة من14 الساعة 06 UTC إلى 15 الساعة 06 UTC
ريح 7 عقدة من الشمال الشرقي
الرؤية 10 كم أو أكثر
غيوم قليلة على ارتفاع 7000 قدم
من 14 الساعة 1800 UTC
ريح 10 عقدة من الجنوب/الجنوب الغربي
الرؤية 10 كم أو أكثر
غيوم متفرقة على ارتفاع 4300 قدم
من 15 الساعة 0100 UTC
ريح 3 عقدةمن اتجاهات متغيرة
الرؤية 10 كم أو أكثر
غيوم قليلة على ارتفاع 6000 قدم

TAF: MSLP 140325Z 1406/1506 04007KT 9999 FEW070 TX31/1418Z TN23/1412Z FM141800 21010KT 9999 SCT043 FM150100 VRB03KT 9999 FEW060

أرصاد الطقس والتوقعات من أكثر من 4000 مطار (تقارير الطقس للمطار METAR والتنبؤ بالطقس بالمطارTAF).

المحطات المتاحة هي النقط الصفراء والحمراء على الخريطة.

حرك المؤشر فوق النقطة لمعرفة اسم المحطة.

ثم انقر لمعرفة أرصاد وتوقعات الطقس.

لتغيير الخارطة: اضغط على الأزرار الخضراء مع رمز الصليب الأسود للتكبير. على الزر الأخضر مع شرطة للتصغير، أو على الأسهم الخضراء للخرائط المجاورة.


METAR-TAF: